Airfield :
LOGIN :

Register | Disclaimer

   EN    FR    IT 

 










Legend :    VFR   Marginal VFR   IFR   Intensive IFR   Very Intensive IFR
Visi :
Ceiling :
>= 8 km
>= 3000ft
5 to 8 km
1000 to 3000 ft
1500m to 5 km
500 to 1000 ft
800 to 1500m
200 to 500 ft
< 800m
< 200 ft
Symbols :   Thunderstorms  Fog  Heavy snow  Heavy precipitations  Wind > 20 kt
SIGMETs :     Misc.  Thunderstorms  Icing  Turbulence  Mountain Waves  Volcanic Ashes






- Airport Elevation : 209 ft
- IATA code : CLY


LFKC - Calvi

CURRENT METAR :
  • 280130Z AUTO 16006KT CAVOK 20/10 Q1009

EXPIRED METARs :
  • 280100Z AUTO 18005KT CAVOK 21/09 Q1010
  • 280030Z AUTO 17007KT CAVOK 20/10 Q1010
  • 280000Z AUTO 14004KT CAVOK 20/10 Q1010
  • 272330Z AUTO 21006KT 180V240 CAVOK 20/10 Q1010
  • 272300Z AUTO 16008KT CAVOK 20/11 Q1011

TAF TAF LFKC
Valid from the 27 at 15:00 until the 28 at 15:00 UTC


271400Z 2715/2815 36010KT CAVOK TX31/2812Z TN19/2803Z
PROB30
TEMPO 2715/2809 SCT070 FEW080CB BKN090
BECMG 2720/2722 18005KT
BECMG 2810/2812 27010G20KT
ATIS : +33 4 95 65 82 49



MET'MAP, your aeronautical weather chart ! - Copyright ORBIFLY December 2007 - Disclaimer

ORBIFLY MET'MAP TEAM :

Programming & Development : Alexandra Zaïnal
Original concept : Baudouin d'Aumeries
Technical & hardware support : Manuel Goepfert
Assistance : Marc-Olivier Méhu

Contact : metmap@orbifly.com




SOURCES & CREDITS :

   NOAA